Time;durP1;ratioP1;P1;durP2;ratioP2;P2;SDS_P1;SDS_P2;PMS_P1;PMS_P2;Temp;Humidity;BMP_temperature;BMP_pressure;BME280_temperature;BME280_humidity;BME280_pressure;Samples;Min_cycle;Max_cycle;Signal;HPM_P1;HPM_P2
2024/02/18 00:01:49;;;;;;;6.57;6.07;;;;;;;9.50;86.96;102358.44;5091624;28;20212;-76
2024/02/18 00:04:16;;;;;;;7.70;6.07;;;;;;;9.47;86.63;102367.06;5093687;28;20239;-76
2024/02/18 00:06:43;;;;;;;6.90;6.40;;;;;;;9.50;86.02;102374.09;5083306;28;20280;-76
2024/02/18 00:09:10;;;;;;;7.13;6.47;;;;;;;9.46;86.57;102382.72;5092099;28;20222;-76
2024/02/18 00:11:36;;;;;;;8.13;7.53;;;;;;;9.40;87.27;102367.84;5091323;28;20676;-76
2024/02/18 00:14:02;;;;;;;7.70;7.20;;;;;;;9.47;87.26;102351.44;5092064;28;20670;-77
2024/02/18 00:16:29;;;;;;;7.90;7.23;;;;;;;9.43;87.78;102344.41;5091138;28;20250;-76
2024/02/18 00:18:55;;;;;;;8.07;7.33;;;;;;;9.39;87.63;102326.97;5091944;28;20281;-76
2024/02/18 00:21:22;;;;;;;7.30;6.70;;;;;;;9.40;87.78;102328.75;5091854;28;20212;-76
2024/02/18 00:23:50;;;;;;;6.93;6.43;;;;;;;9.37;87.96;102313.03;5092520;28;20295;-77
2024/02/18 00:26:16;;;;;;;6.57;6.10;;;;;;;9.32;88.40;102305.16;5091080;28;20292;-76
2024/02/18 00:28:42;;;;;;;6.30;5.87;;;;;;;9.36;87.83;102297.41;5086436;28;20196;-77
2024/02/18 00:31:09;;;;;;;6.30;5.80;;;;;;;9.31;87.56;102297.31;5096254;28;20223;-76
2024/02/18 00:33:35;;;;;;;5.90;5.50;;;;;;;9.17;87.42;102304.03;5091960;28;20641;-77
2024/02/18 00:36:02;;;;;;;6.43;5.90;;;;;;;9.06;88.05;102289.09;5091518;28;20559;-76
2024/02/18 00:38:28;;;;;;;5.90;5.40;;;;;;;8.98;87.64;102287.19;5091366;28;20297;-77
2024/02/18 00:40:56;;;;;;;5.10;4.70;;;;;;;8.92;87.80;102273.22;5091301;28;20210;-77
2024/02/18 00:43:23;;;;;;;5.80;5.30;;;;;;;8.79;87.90;102266.03;5091798;28;20200;-76
2024/02/18 00:45:49;;;;;;;5.80;5.40;;;;;;;8.82;88.16;102253.09;5091103;28;20211;-77
2024/02/18 00:48:16;;;;;;;7.00;6.40;;;;;;;8.85;88.28;102242.72;5091360;28;20276;-76
2024/02/18 00:50:42;;;;;;;6.53;5.93;;;;;;;8.85;88.33;102240.13;5091636;28;20249;-76
2024/02/18 00:53:09;;;;;;;8.07;6.43;;;;;;;8.83;88.51;102234.00;5091664;28;20219;-76
2024/02/18 00:55:35;;;;;;;6.57;5.97;;;;;;;8.84;88.22;102234.88;5099559;28;20200;-75
2024/02/18 00:58:03;;;;;;;5.83;5.43;;;;;;;8.78;87.93;102234.75;5083215;28;20285;-76
2024/02/18 01:00:30;;;;;;;5.63;5.13;;;;;;;8.75;87.30;102244.28;5091619;28;20208;-76
2024/02/18 01:02:57;;;;;;;5.27;4.87;;;;;;;8.68;87.07;102260.66;5092993;28;20200;-76
2024/02/18 01:05:23;;;;;;;5.60;5.20;;;;;;;8.69;86.89;102270.22;5092983;28;20719;-76
2024/02/18 01:07:51;;;;;;;5.70;5.30;;;;;;;8.63;86.75;102272.69;5091292;28;20220;-77
2024/02/18 01:10:17;;;;;;;5.97;5.33;;;;;;;8.59;86.47;102290.84;5092940;28;20249;-76
2024/02/18 01:12:43;;;;;;;6.23;5.30;;;;;;;8.63;86.29;102283.13;5095850;28;20229;-78
2024/02/18 01:15:11;;;;;;;6.53;5.97;;;;;;;8.55;86.53;102287.31;5098731;28;20257;-78
2024/02/18 01:17:37;;;;;;;12.10;10.90;;;;;;;8.36;88.54;102278.22;5096476;28;20247;-78
2024/02/18 01:20:05;;;;;;;15.13;13.43;;;;;;;8.32;94.86;102188.84;5097453;28;20280;-78
2024/02/18 01:22:31;;;;;;;15.30;12.07;;;;;;;8.40;98.26;102084.88;5101096;28;20200;-78
2024/02/18 01:24:58;;;;;;;15.47;13.90;;;;;;;8.40;97.89;102061.44;5097012;28;20715;-76
2024/02/18 01:27:24;;;;;;;16.53;14.27;;;;;;;8.43;97.74;102039.84;5094477;28;20726;-77
2024/02/18 01:29:50;;;;;;;14.93;13.20;;;;;;;8.37;96.16;102057.94;5094854;28;20663;-76
2024/02/18 01:32:18;;;;;;;20.07;15.37;;;;;;;8.16;98.30;102041.09;5094532;28;20253;-76
2024/02/18 01:34:45;;;;;;;17.57;13.97;;;;;;;8.20;99.31;101993.47;5094927;28;20261;-76
2024/02/18 01:37:11;;;;;;;15.03;13.53;;;;;;;8.21;98.39;102000.44;5094327;28;20251;-77
2024/02/18 01:39:37;;;;;;;20.53;14.93;;;;;;;8.06;98.14;102013.19;5095018;28;20228;-76
2024/02/18 01:42:04;;;;;;;15.23;13.73;;;;;;;7.94;97.75;102011.25;5094911;28;20204;-76
2024/02/18 01:44:32;;;;;;;16.17;14.07;;;;;;;8.01;98.15;101997.53;5094821;28;20204;-76
2024/02/18 01:46:59;;;;;;;17.33;14.10;;;;;;;8.04;98.06;101997.56;5093754;28;20227;-76
2024/02/18 01:49:30;;;;;;;14.90;13.40;;;;;;;8.19;97.32;102009.97;5094675;28;20222;-76
2024/02/18 01:51:56;;;;;;;15.23;13.20;;;;;;;8.27;96.04;102023.97;5094390;28;20294;-76
2024/02/18 01:54:25;;;;;;;25.30;15.70;;;;;;;8.13;97.18;102025.47;5096957;28;20201;-76
2024/02/18 01:56:52;;;;;;;22.27;16.13;;;;;;;8.17;98.72;101996.06;5094295;28;20336;-76
2024/02/18 01:59:18;;;;;;;20.60;15.50;;;;;;;8.16;99.92;101979.56;5094509;28;20226;-76
2024/02/18 02:01:45;;;;;;;19.37;15.97;;;;;;;7.84;100.00;101958.22;5094077;28;20208;-76
2024/02/18 02:04:11;;;;;;;22.73;16.93;;;;;;;7.68;100.00;101880.84;5096455;28;20207;-76
2024/02/18 02:06:40;;;;;;;18.57;15.30;;;;;;;7.71;100.00;101840.19;5093877;28;20235;-75
2024/02/18 02:09:07;;;;;;;24.43;15.80;;;;;;;7.67;100.00;101840.13;5088306;28;20201;-76
2024/02/18 02:11:33;;;;;;;19.43;16.40;;;;;;;7.76;100.00;101861.06;5093984;28;20621;-76
2024/02/18 02:14:00;;;;;;;20.57;14.47;;;;;;;7.86;100.00;101881.13;5094704;28;20200;-76
2024/02/18 02:16:26;;;;;;;14.40;12.90;;;;;;;8.01;100.00;101898.72;5093306;28;20220;-76
2024/02/18 02:18:53;;;;;;;14.90;12.63;;;;;;;8.09;100.00;101924.84;5085609;28;20276;-76
2024/02/18 02:21:19;;;;;;;13.03;11.20;;;;;;;8.17;98.42;101962.25;5093419;28;20204;-76
2024/02/18 02:23:47;;;;;;;13.10;11.73;;;;;;;8.26;96.37;101992.72;5093371;28;20211;-76
2024/02/18 02:26:14;;;;;;;16.63;12.53;;;;;;;8.31;95.33;102024.88;5093704;28;20229;-76
2024/02/18 02:28:47;;;;;;;17.20;14.17;;;;;;;8.39;94.35;102054.50;5093880;28;20207;-76
2024/02/18 02:31:16;;;;;;;14.90;13.37;;;;;;;8.39;93.02;102071.84;5093117;28;20204;-76
2024/02/18 02:33:44;;;;;;;14.90;13.37;;;;;;;8.37;92.71;102096.97;5094093;28;20203;-76
2024/02/18 02:36:11;;;;;;;17.73;14.33;;;;;;;8.32;92.76;102118.59;5093815;28;20246;-76
2024/02/18 02:38:38;;;;;;;16.43;14.30;;;;;;;8.34;92.50;102119.50;5093332;28;20310;-76
2024/02/18 02:41:04;;;;;;;18.63;14.57;;;;;;;8.35;92.75;102126.44;5093674;28;20205;-77
2024/02/18 02:43:31;;;;;;;21.17;15.13;;;;;;;8.32;92.62;102125.50;5094174;28;20200;-76
2024/02/18 02:45:57;;;;;;;25.20;17.43;;;;;;;8.31;92.87;102132.44;5092350;28;20200;-75
2024/02/18 02:48:25;;;;;;;29.10;18.43;;;;;;;8.30;92.90;102128.06;5089022;28;20265;-76
2024/02/18 02:50:51;;;;;;;20.43;17.43;;;;;;;8.24;93.15;102120.16;5092838;28;20662;-76
2024/02/18 02:53:17;;;;;;;25.07;17.20;;;;;;;8.35;93.06;102117.75;5092698;28;20662;-76
2024/02/18 02:55:43;;;;;;;22.60;16.23;;;;;;;8.33;92.66;102122.06;5092532;28;20635;-76
2024/02/18 02:58:09;;;;;;;22.90;17.03;;;;;;;8.39;92.09;102131.69;5093157;28;20224;-76
2024/02/18 03:00:35;;;;;;;34.17;18.43;;;;;;;8.22;92.82;102123.59;5092853;28;20763;-76
2024/02/18 03:03:02;;;;;;;27.10;19.80;;;;;;;8.25;93.99;102093.31;5092734;28;20212;-76
2024/02/18 03:05:30;;;;;;;30.93;19.40;;;;;;;8.32;94.45;102076.97;5093164;28;20228;-76
2024/02/18 03:07:56;;;;;;;28.43;18.50;;;;;;;8.25;93.84;102077.69;5092884;28;20223;-76
2024/02/18 03:10:23;;;;;;;22.47;17.50;;;;;;;8.31;93.62;102066.53;5093280;28;20254;-76
2024/02/18 03:12:49;;;;;;;24.10;19.87;;;;;;;8.28;93.82;102054.31;5092991;28;20635;-76
2024/02/18 03:15:15;;;;;;;25.80;18.70;;;;;;;8.31;94.63;102050.91;5092744;28;20288;-76
2024/02/18 03:17:42;;;;;;;24.87;18.47;;;;;;;8.26;94.57;102042.13;5092559;28;20710;-76
2024/02/18 03:20:10;;;;;;;26.33;18.80;;;;;;;8.28;94.87;102036.09;5093654;28;20220;-77
2024/02/18 03:22:37;;;;;;;33.23;20.80;;;;;;;8.11;97.25;102022.84;5095734;28;20235;-76
2024/02/18 03:25:04;;;;;;;35.70;20.20;;;;;;;8.21;97.78;101981.38;5092403;28;20230;-76
2024/02/18 03:27:31;;;;;;;31.70;21.00;;;;;;;8.29;98.45;101952.03;5092300;28;20220;-76
2024/02/18 03:30:00;;;;;;;31.50;19.63;;;;;;;8.31;97.62;101962.44;5084296;28;20200;-76
2024/02/18 03:32:26;;;;;;;27.43;19.37;;;;;;;8.30;96.56;101978.91;5091792;28;20234;-76
2024/02/18 03:34:53;;;;;;;35.27;21.53;;;;;;;8.19;96.72;101988.28;5092608;28;20269;-77
2024/02/18 03:37:19;;;;;;;24.33;18.30;;;;;;;8.26;96.19;101980.56;5092236;28;20215;-76
2024/02/18 03:39:47;;;;;;;29.27;19.50;;;;;;;8.32;95.59;101982.41;5092449;28;20228;-76
2024/02/18 03:42:13;;;;;;;26.43;19.00;;;;;;;8.34;95.03;102001.50;5092043;28;20204;-76
2024/02/18 03:44:39;;;;;;;29.13;19.33;;;;;;;8.39;94.93;102006.81;5092021;28;20217;-76
2024/02/18 03:47:06;;;;;;;31.53;20.47;;;;;;;8.38;94.58;102013.72;5091525;28;20254;-76
2024/02/18 03:49:32;;;;;;;33.13;21.43;;;;;;;8.40;94.62;102009.41;5092011;28;20200;-76
2024/02/18 03:51:58;;;;;;;33.23;21.77;;;;;;;8.41;94.51;102010.31;5092535;28;20300;-76
2024/02/18 03:54:25;;;;;;;37.27;21.50;;;;;;;8.47;94.78;102007.81;5091608;28;20662;-76
2024/02/18 03:56:53;;;;;;;34.40;20.37;;;;;;;8.50;94.61;102013.06;5091517;28;20609;-76
2024/02/18 03:59:19;;;;;;;28.83;20.37;;;;;;;8.54;94.15;102015.75;5092079;28;20224;-75
2024/02/18 04:01:45;;;;;;;29.90;19.47;;;;;;;8.51;94.11;102023.50;5091566;28;20228;-76
2024/02/18 04:04:12;;;;;;;27.93;20.00;;;;;;;8.49;93.77;102021.72;5092211;28;20200;-76
2024/02/18 04:06:38;;;;;;;37.53;21.00;;;;;;;8.55;94.02;102021.81;5091369;28;20315;-76
2024/02/18 04:09:05;;;;;;;36.30;21.47;;;;;;;8.52;94.87;102007.03;5091076;28;20675;-76
2024/02/18 04:11:31;;;;;;;27.37;20.23;;;;;;;8.55;94.65;101999.25;5091740;28;20207;-76
2024/02/18 04:14:00;;;;;;;27.17;20.03;;;;;;;8.60;94.59;102004.53;5091778;28;20196;-76
2024/02/18 04:16:26;;;;;;;28.73;19.97;;;;;;;8.64;94.11;102001.16;5090592;28;20223;-76
2024/02/18 04:18:53;;;;;;;31.57;20.53;;;;;;;8.65;94.07;101996.81;5091591;28;20211;-77
2024/02/18 04:21:20;;;;;;;29.47;20.47;;;;;;;8.60;94.47;102001.91;5086496;28;20196;-76
2024/02/18 04:23:46;;;;;;;25.23;19.57;;;;;;;8.66;93.98;102001.13;5091338;28;20204;-76
2024/02/18 04:26:13;;;;;;;31.50;21.67;;;;;;;8.59;95.23;101994.97;5090842;28;20208;-76
2024/02/18 04:28:40;;;;;;;27.17;19.00;;;;;;;8.66;95.03;101980.31;5091600;28;20200;-76
2024/02/18 04:31:07;;;;;;;24.00;18.50;;;;;;;8.74;94.30;101978.69;5091146;28;20204;-76
2024/02/18 04:33:34;;;;;;;20.03;17.50;;;;;;;8.73;93.55;101985.63;5091725;28;20280;-77
2024/02/18 04:36:00;;;;;;;25.30;19.13;;;;;;;8.67;93.43;101993.34;5091285;28;20211;-76
2024/02/18 04:38:27;;;;;;;27.33;18.70;;;;;;;8.67;92.95;101995.97;5091210;28;20655;-76
2024/02/18 04:40:53;;;;;;;28.07;19.77;;;;;;;8.67;92.94;102000.31;5091032;28;20224;-76
2024/02/18 04:43:19;;;;;;;32.40;18.90;;;;;;;8.69;92.59;102006.41;5092549;28;20200;-76
2024/02/18 04:45:47;;;;;;;22.27;16.90;;;;;;;8.67;92.29;102014.19;5090144;28;20727;-76
2024/02/18 04:48:15;;;;;;;25.33;18.90;;;;;;;8.48;93.62;102009.56;5090754;28;20602;-76
2024/02/18 04:50:42;;;;;;;27.87;18.07;;;;;;;8.39;93.68;101986.00;5091723;28;20249;-78
2024/02/18 04:53:08;;;;;;;28.90;19.50;;;;;;;8.27;95.12;101964.13;5091461;28;20200;-76
2024/02/18 04:55:34;;;;;;;27.73;18.87;;;;;;;8.24;97.10;101930.25;5091121;28;20207;-76
2024/02/18 04:58:01;;;;;;;30.67;20.73;;;;;;;8.29;97.59;101905.19;5091581;28;20220;-76
2024/02/18 05:00:27;;;;;;;24.93;18.43;;;;;;;8.41;96.95;101898.41;5091154;28;20717;-76
2024/02/18 05:02:54;;;;;;;28.57;19.07;;;;;;;8.40;96.55;101905.31;5091459;28;20257;-78
2024/02/18 05:05:21;;;;;;;22.27;18.47;;;;;;;8.44;96.07;101914.09;5092510;28;20659;-78
2024/02/18 05:07:48;;;;;;;29.97;19.90;;;;;;;8.42;95.33;101916.66;5093038;28;20224;-78
2024/02/18 05:10:14;;;;;;;25.40;19.23;;;;;;;8.42;95.06;101919.25;5093952;28;20603;-77
2024/02/18 05:12:40;;;;;;;19.47;16.97;;;;;;;8.43;94.89;101920.16;5093644;28;20204;-77
2024/02/18 05:15:08;;;;;;;25.93;18.57;;;;;;;8.42;94.68;101918.41;5093516;28;20253;-77
2024/02/18 05:17:34;;;;;;;24.87;18.63;;;;;;;8.35;95.25;101917.41;5097155;28;20223;-77
2024/02/18 05:20:02;;;;;;;23.60;17.53;;;;;;;8.37;95.47;101913.09;5093624;28;20228;-77
2024/02/18 05:22:30;;;;;;;23.17;17.00;;;;;;;8.46;95.35;101901.97;5093466;28;20201;-78
2024/02/18 05:24:57;;;;;;;23.37;18.27;;;;;;;8.47;95.43;101911.53;5092834;28;20207;-78
2024/02/18 05:27:24;;;;;;;23.37;17.53;;;;;;;8.47;95.73;101914.13;5092627;28;20771;-78
2024/02/18 05:29:50;;;;;;;18.37;16.40;;;;;;;8.53;95.60;101904.69;5092408;28;20222;-77
2024/02/18 05:32:18;;;;;;;19.53;16.57;;;;;;;8.54;95.83;101906.44;5099703;28;20204;-77
2024/02/18 05:34:44;;;;;;;20.63;16.50;;;;;;;8.58;95.15;101914.28;5092807;28;20232;-77
2024/02/18 05:37:11;;;;;;;20.03;15.70;;;;;;;8.58;94.83;101907.31;5093146;28;20224;-78
2024/02/18 05:39:38;;;;;;;17.73;15.87;;;;;;;8.64;94.63;101909.13;5093581;28;20250;-77
2024/02/18 05:42:06;;;;;;;16.80;15.00;;;;;;;8.67;94.39;101910.06;5093216;28;20204;-78
2024/02/18 05:44:32;;;;;;;19.67;15.60;;;;;;;8.67;94.51;101910.06;5094149;28;20226;-77
2024/02/18 05:46:59;;;;;;;19.80;15.70;;;;;;;8.61;95.35;101907.38;5090971;28;20228;-78
2024/02/18 05:49:25;;;;;;;19.13;15.87;;;;;;;8.66;95.78;101897.00;5093260;28;20196;-77
2024/02/18 05:51:53;;;;;;;17.70;15.77;;;;;;;8.68;95.65;101884.91;5092705;28;20303;-77
2024/02/18 05:54:20;;;;;;;15.83;14.03;;;;;;;8.70;95.80;101883.19;5093505;28;20234;-77
2024/02/18 05:56:48;;;;;;;16.87;15.07;;;;;;;8.75;95.78;101886.72;5092582;28;20594;-77
2024/02/18 05:59:14;;;;;;;17.03;14.13;;;;;;;8.79;95.46;101880.69;5096619;28;20200;-77
2024/02/18 06:01:40;;;;;;;17.30;14.00;;;;;;;8.69;96.63;101881.44;5095809;28;20192;-77
2024/02/18 06:04:08;;;;;;;18.33;15.23;;;;;;;8.74;96.88;101859.81;5095517;28;20204;-78
2024/02/18 06:06:34;;;;;;;17.33;14.10;;;;;;;8.83;96.82;101845.16;5095810;28;20253;-77
2024/02/18 06:09:00;;;;;;;16.10;14.43;;;;;;;8.90;96.42;101841.75;5096207;28;20637;-78
2024/02/18 06:11:27;;;;;;;15.67;14.17;;;;;;;8.86;96.17;101855.59;5096570;28;20268;-77
2024/02/18 06:13:54;;;;;;;18.53;14.60;;;;;;;8.87;96.53;101849.53;5099166;28;20200;-77
2024/02/18 06:16:21;;;;;;;15.70;13.20;;;;;;;8.82;97.19;101831.28;5094897;28;20269;-77
2024/02/18 06:18:47;;;;;;;20.60;14.43;;;;;;;8.81;97.69;101821.72;5096656;28;20200;-77
2024/02/18 06:21:20;;;;;;;15.80;14.13;;;;;;;8.83;98.04;101806.97;5096235;28;20228;-77
2024/02/18 06:23:47;;;;;;;16.53;13.57;;;;;;;8.90;98.04;101814.00;5096314;28;20204;-78
2024/02/18 06:26:13;;;;;;;18.13;13.63;;;;;;;8.97;97.06;101814.91;5095927;28;20204;-78
2024/02/18 06:28:39;;;;;;;15.20;13.60;;;;;;;9.05;96.76;101822.81;5095610;28;20208;-78
2024/02/18 06:31:07;;;;;;;14.33;12.90;;;;;;;8.97;97.33;101822.72;5095121;28;20207;-77
2024/02/18 06:33:33;;;;;;;14.30;12.93;;;;;;;9.05;97.47;101813.25;5095907;28;20434;-77
2024/02/18 06:36:00;;;;;;;17.17;12.87;;;;;;;9.13;97.12;101815.94;5095623;28;20629;-77
2024/02/18 06:38:26;;;;;;;13.73;11.73;;;;;;;9.15;97.13;101816.81;5096054;28;20204;-77
2024/02/18 06:40:52;;;;;;;13.30;11.80;;;;;;;9.18;97.17;101821.19;5098072;28;20224;-78
2024/02/18 06:43:19;;;;;;;15.23;13.80;;;;;;;9.16;97.52;101815.97;5095296;28;20207;-77
2024/02/18 06:45:45;;;;;;;13.37;11.97;;;;;;;9.13;97.42;101816.81;5095180;28;20208;-78
2024/02/18 06:48:13;;;;;;;13.13;11.80;;;;;;;9.27;96.58;101823.88;5086610;28;20250;-77
2024/02/18 06:50:39;;;;;;;13.17;11.70;;;;;;;9.17;97.08;101829.88;5095592;28;20728;-78
2024/02/18 06:53:06;;;;;;;16.13;11.30;;;;;;;9.18;97.26;101813.38;5100591;28;20336;-78
2024/02/18 06:55:33;;;;;;;12.90;11.50;;;;;;;9.23;97.21;101802.13;5094669;28;20290;-77
2024/02/18 06:57:59;;;;;;;15.03;11.00;;;;;;;9.23;97.55;101799.53;5095013;28;20265;-77
2024/02/18 07:00:25;;;;;;;13.73;11.03;;;;;;;9.32;96.88;101790.94;5094629;28;20285;-77
2024/02/18 07:02:53;;;;;;;13.90;12.43;;;;;;;9.31;96.80;101797.00;5094484;28;20257;-77
2024/02/18 07:05:20;;;;;;;14.23;11.50;;;;;;;9.23;97.53;101789.09;5095357;28;20226;-78
2024/02/18 07:07:47;;;;;;;12.47;11.37;;;;;;;9.17;97.44;101780.38;5102234;28;20709;-77
2024/02/18 07:10:13;;;;;;;13.93;12.53;;;;;;;9.27;97.66;101771.78;5086554;28;20201;-77
2024/02/18 07:12:40;;;;;;;13.37;11.97;;;;;;;9.32;98.03;101764.88;5094831;28;20199;-77
2024/02/18 07:15:07;;;;;;;12.73;11.40;;;;;;;9.39;98.01;101765.78;5094519;28;20261;-77
2024/02/18 07:17:33;;;;;;;13.17;10.60;;;;;;;9.39;98.31;101755.34;5094001;28;20212;-78
2024/02/18 07:20:00;;;;;;;12.80;11.40;;;;;;;9.41;97.67;101758.84;5096424;28;20228;-77
2024/02/18 07:22:27;;;;;;;12.10;10.90;;;;;;;9.39;97.76;101763.19;5092646;28;20200;-78
2024/02/18 07:24:54;;;;;;;12.90;11.60;;;;;;;9.43;96.73;101771.03;5093098;28;20216;-77
2024/02/18 07:27:20;;;;;;;11.83;10.67;;;;;;;9.52;96.09;101780.66;5091736;28;20281;-77
2024/02/18 07:29:47;;;;;;;12.33;11.13;;;;;;;9.54;95.92;101792.84;5090742;28;20200;-78
2024/02/18 07:32:13;;;;;;;12.07;10.87;;;;;;;9.57;96.50;101783.28;5093335;28;20208;-77
2024/02/18 07:34:39;;;;;;;11.70;10.53;;;;;;;9.56;97.24;101773.75;5095932;28;20208;-76
2024/02/18 07:37:06;;;;;;;11.37;10.30;;;;;;;9.68;96.62;101768.59;5092123;28;20280;-78
2024/02/18 07:39:34;;;;;;;12.43;10.63;;;;;;;9.61;96.53;101777.22;5090595;28;20200;-78
2024/02/18 07:42:00;;;;;;;13.13;10.67;;;;;;;9.53;93.58;101809.34;5095101;28;20219;-79
2024/02/18 07:44:27;;;;;;;11.83;9.93;;;;;;;9.70;92.89;101842.47;5095829;28;20196;-79
2024/02/18 07:46:57;;;;;;;11.63;10.43;;;;;;;9.78;92.60;101842.53;5095169;28;20255;-79
2024/02/18 07:49:23;;;;;;;11.10;10.17;;;;;;;9.87;92.63;101848.69;5094541;28;20262;-79
2024/02/18 07:51:49;;;;;;;11.27;10.17;;;;;;;10.02;92.36;101860.94;5094960;28;20207;-79
2024/02/18 07:54:16;;;;;;;12.20;10.47;;;;;;;9.98;92.25;101850.50;5095203;28;20204;-79
2024/02/18 07:56:45;;;;;;;11.50;10.40;;;;;;;9.99;91.77;101866.16;5087993;28;20740;-80
2024/02/18 07:59:11;;;;;;;11.87;10.67;;;;;;;10.07;92.45;101858.38;5094733;28;20273;-79
2024/02/18 08:01:38;;;;;;;10.80;9.83;;;;;;;10.08;92.45;101854.91;5094455;28;20586;-79
2024/02/18 08:04:04;;;;;;;11.73;10.73;;;;;;;10.08;92.41;101853.16;5094947;28;20262;-79
2024/02/18 08:06:31;;;;;;;11.67;10.57;;;;;;;10.17;91.76;101849.75;5094466;28;20281;-79
2024/02/18 08:08:58;;;;;;;10.90;10.00;;;;;;;10.25;92.00;101855.00;5085599;28;20230;-79
2024/02/18 08:11:24;;;;;;;12.07;10.37;;;;;;;10.26;90.94;101868.03;5099487;28;20203;-79
2024/02/18 08:13:52;;;;;;;10.90;9.73;;;;;;;10.37;90.63;101870.75;5097080;28;20204;-79
2024/02/18 08:16:19;;;;;;;11.27;10.30;;;;;;;10.26;89.05;101894.13;5094273;28;20927;-79
2024/02/18 08:18:45;;;;;;;10.53;9.60;;;;;;;10.33;88.27;101901.19;5094834;28;20229;-79
2024/02/18 08:21:12;;;;;;;9.90;9.00;;;;;;;10.34;86.70;101938.59;5098182;28;20224;-79
2024/02/18 08:23:38;;;;;;;9.73;8.83;;;;;;;9.90;87.02;101957.38;5095066;28;20200;-79
2024/02/18 08:26:05;;;;;;;10.50;8.50;;;;;;;9.99;87.77;101943.53;5094774;28;20204;-80
2024/02/18 08:28:31;;;;;;;10.03;9.13;;;;;;;10.03;89.56;101908.78;5086480;28;20211;-79
2024/02/18 08:30:59;;;;;;;13.53;9.93;;;;;;;9.92;88.62;101899.13;5097158;28;20229;-79
2024/02/18 08:33:25;;;;;;;10.07;9.10;;;;;;;10.05;88.58;101910.56;5097702;28;20253;-79
2024/02/18 08:35:52;;;;;;;10.37;8.97;;;;;;;10.21;89.46;101894.97;5091366;28;20230;-79
2024/02/18 08:38:18;;;;;;;9.50;8.53;;;;;;;10.19;88.12;101902.81;5093911;28;20216;-80
2024/02/18 08:40:45;;;;;;;9.70;8.67;;;;;;;10.21;86.02;101929.78;5095808;28;20262;-81
2024/02/18 08:43:12;;;;;;;9.30;8.40;;;;;;;10.32;86.58;101951.63;5095457;28;20295;-79
2024/02/18 08:45:38;;;;;;;9.00;8.10;;;;;;;10.39;86.47;101942.13;5103763;28;20211;-79
2024/02/18 08:48:06;;;;;;;9.67;8.33;;;;;;;10.32;86.31;101958.59;5107770;28;20220;-79
2024/02/18 08:50:33;;;;;;;8.60;7.80;;;;;;;10.44;87.06;101945.59;5107951;28;20200;-78
2024/02/18 08:52:59;;;;;;;7.97;7.20;;;;;;;10.40;84.47;101972.56;5101398;28;20269;-78
2024/02/18 08:55:25;;;;;;;8.07;7.33;;;;;;;10.53;84.52;101987.44;5100632;28;20291;-79
2024/02/18 08:57:52;;;;;;;7.70;7.00;;;;;;;10.62;81.70;102022.31;5097430;28;20312;-78
2024/02/18 09:00:19;;;;;;;6.97;6.37;;;;;;;10.70;81.75;102031.06;5098773;28;20209;-79
2024/02/18 09:02:45;;;;;;;7.27;6.47;;;;;;;10.75;82.00;102045.03;5093393;28;20298;-79
2024/02/18 09:05:13;;;;;;;10.10;7.87;;;;;;;10.72;81.37;102065.88;5082264;28;20203;-79
2024/02/18 09:07:39;;;;;;;7.77;6.90;;;;;;;10.78;82.12;102041.56;5093773;28;20247;-78
2024/02/18 09:10:06;;;;;;;10.07;7.77;;;;;;;10.84;82.28;102041.59;5093535;28;20394;-78
2024/02/18 09:12:33;;;;;;;8.57;7.80;;;;;;;10.86;82.36;102026.78;5092844;28;20665;-79
2024/02/18 09:14:59;;;;;;;7.13;6.53;;;;;;;10.83;81.71;102052.91;5093536;28;20254;-78
2024/02/18 09:17:26;;;;;;;8.43;7.13;;;;;;;10.75;80.08;102062.44;5099432;28;20706;-78
2024/02/18 09:19:52;;;;;;;8.70;7.60;;;;;;;10.90;81.94;102059.91;5091770;28;20220;-78
2024/02/18 09:22:20;;;;;;;7.53;6.93;;;;;;;10.94;82.90;102040.75;5091803;28;20231;-78
2024/02/18 09:24:46;;;;;;;8.70;7.97;;;;;;;10.81;81.43;102046.81;5092096;28;20211;-78
2024/02/18 09:27:13;;;;;;;8.73;7.90;;;;;;;11.02;82.61;102040.81;5093025;28;20266;-78
2024/02/18 09:29:39;;;;;;;8.87;8.07;;;;;;;11.11;82.78;102027.81;5094071;28;20662;-79
2024/02/18 09:32:06;;;;;;;9.57;8.67;;;;;;;11.22;83.16;102009.53;5104524;28;20201;-79
2024/02/18 09:34:34;;;;;;;7.97;7.27;;;;;;;11.17;82.80;102011.28;5094738;28;20208;-79
2024/02/18 09:37:00;;;;;;;10.07;9.13;;;;;;;11.15;82.54;102020.84;5096890;28;20233;-79
2024/02/18 09:39:28;;;;;;;8.93;8.20;;;;;;;11.22;81.75;102035.69;5096959;28;20206;-78
2024/02/18 09:41:58;;;;;;;9.37;8.47;;;;;;;11.35;82.61;102018.31;5096593;28;20223;-78
2024/02/18 09:44:26;;;;;;;9.83;8.93;;;;;;;11.27;82.62;102013.91;5096263;28;20499;-79
2024/02/18 09:46:54;;;;;;;8.80;8.00;;;;;;;11.43;81.80;102007.00;5095956;28;20231;-78
2024/02/18 09:49:22;;;;;;;7.97;7.37;;;;;;;11.48;81.32;102026.19;5096345;28;20740;-78
2024/02/18 09:51:55;;;;;;;7.70;7.00;;;;;;;11.57;81.70;102025.34;5102168;28;20209;-78
2024/02/18 09:54:22;;;;;;;8.60;7.90;;;;;;;11.64;82.28;102007.94;5097498;28;20209;-78
2024/02/18 09:56:50;;;;;;;8.60;8.00;;;;;;;11.63;81.23;102014.88;5090768;28;20234;-79
2024/02/18 09:59:17;;;;;;;8.83;7.93;;;;;;;11.70;81.85;102013.19;5096515;28;20228;-80
2024/02/18 10:01:48;;;;;;;9.77;8.77;;;;;;;11.71;82.14;102013.19;5096704;28;20224;-78
2024/02/18 10:04:14;;;;;;;12.03;8.50;;;;;;;11.70;82.81;101998.34;5097638;28;20262;-79
2024/02/18 10:06:41;;;;;;;8.73;7.90;;;;;;;11.78;80.89;102007.97;5097451;28;20223;-79
2024/02/18 10:09:09;;;;;;;9.30;8.40;;;;;;;11.80;80.91;102004.47;5097710;28;20203;-79
2024/02/18 10:11:37;;;;;;;10.57;9.65;;;;;;;11.63;79.18;102040.19;5096457;28;20435;-79
2024/02/18 10:14:05;;;;;;;9.40;8.60;;;;;;;11.72;80.26;102038.47;5097338;28;20276;-79
2024/02/18 10:16:32;;;;;;;8.93;8.10;;;;;;;11.65;79.49;102036.69;5087923;28;20278;-78
2024/02/18 10:18:58;;;;;;;8.93;8.13;;;;;;;11.89;80.83;102014.97;5097209;28;20258;-79
2024/02/18 10:21:25;;;;;;;9.30;7.57;;;;;;;12.04;80.08;102010.63;5096678;28;20281;-78
2024/02/18 10:23:53;;;;;;;7.97;7.27;;;;;;;11.99;77.94;102043.75;5095942;28;20201;-80
2024/02/18 10:26:20;;;;;;;8.50;7.70;;;;;;;12.10;78.01;102061.22;5096122;28;20206;-79
2024/02/18 10:28:47;;;;;;;8.30;7.60;;;;;;;12.12;79.24;102049.00;5097489;28;20212;-81
2024/02/18 10:31:14;;;;;;;7.70;7.00;;;;;;;12.13;77.82;102052.53;5096409;28;20208;-83
2024/02/18 10:33:41;;;;;;;6.90;6.40;;;;;;;12.21;77.29;102065.59;5100179;28;20664;-78
2024/02/18 10:36:11;;;;;;;7.47;6.90;;;;;;;12.11;75.53;102102.25;5096744;28;20231;-78
2024/02/18 10:38:43;;;;;;;6.27;5.77;;;;;;;11.99;75.33;102120.56;5096103;28;20210;-78
2024/02/18 10:41:16;;;;;;;7.17;6.50;;;;;;;11.96;76.15;102115.28;5103711;28;20246;-78
2024/02/18 10:43:48;;;;;;;6.87;6.37;;;;;;;12.06;75.81;102124.91;5085067;22;20596;-84
2024/02/18 10:46:20;;;;;;;6.90;6.07;;;;;;;12.02;74.58;102135.38;5053104;28;20253;-83
2024/02/18 10:48:51;;;;;;;6.57;5.47;;;;;;;12.16;76.46;102122.31;5055801;28;20209;-82
2024/02/18 10:51:24;;;;;;;6.53;5.90;;;;;;;12.24;75.54;102126.69;5055792;28;20205;-84
2024/02/18 10:54:00;;;;;;;7.57;5.93;;;;;;;12.32;75.21;102121.47;5062761;28;20237;-81
2024/02/18 10:56:27;;;;;;;5.63;5.13;;;;;;;12.01;74.42;102142.38;5057733;28;20259;-83
2024/02/18 10:59:04;;;;;;;6.97;6.47;;;;;;;12.18;75.32;102125.81;5061655;28;20210;-79
2024/02/18 11:01:35;;;;;;;6.60;6.00;;;;;;;12.34;75.88;102119.72;5074618;28;20251;-82
2024/02/18 11:04:07;;;;;;;6.50;5.77;;;;;;;12.25;75.82;102099.66;5075163;28;20236;-82
2024/02/18 11:06:35;;;;;;;6.43;5.80;;;;;;;12.40;76.33;102085.66;5075950;28;20212;-80
2024/02/18 11:09:01;;;;;;;8.13;6.57;;;;;;;12.38;75.99;102073.47;5075253;28;20610;-81
2024/02/18 11:11:29;;;;;;;7.03;6.43;;;;;;;12.37;75.51;102085.69;5075771;28;20206;-84
2024/02/18 11:13:57;;;;;;;7.10;6.53;;;;;;;11.94;74.47;102105.72;5062679;28;20222;-81
2024/02/18 11:16:26;;;;;;;11.03;6.77;;;;;;;12.20;76.88;102083.03;5067205;28;20202;-80
2024/02/18 11:18:54;;;;;;;7.27;6.57;;;;;;;12.28;76.96;102046.41;5077180;28;20319;-78